createdAt,value
2018-03-03T00:02:35.860Z,-3.53
2018-03-03T00:12:36.461Z,-3.64
2018-03-03T00:22:35.839Z,-3.81
2018-03-03T00:32:35.884Z,-3.67
2018-03-03T00:42:35.835Z,-4.08
2018-03-03T00:52:35.932Z,-4.22
2018-03-03T01:02:35.902Z,-4.3
2018-03-03T01:12:35.816Z,-4.33
2018-03-03T01:22:35.885Z,-4.46
2018-03-03T01:32:35.930Z,-4.58
2018-03-03T01:42:35.931Z,-4.71
2018-03-03T01:52:35.874Z,-4.91
2018-03-03T02:02:35.968Z,-4.83
2018-03-03T02:12:35.935Z,-5
2018-03-03T02:22:35.979Z,-5.11
2018-03-03T02:32:35.936Z,-5.04
2018-03-03T02:42:35.888Z,-4.77
2018-03-03T02:52:35.959Z,-4.57
2018-03-03T03:02:35.882Z,-4.32
2018-03-03T03:12:36.009Z,-4.14
2018-03-03T03:22:35.909Z,-4.02
2018-03-03T03:32:36.003Z,-3.94
2018-03-03T03:42:35.986Z,-3.76
2018-03-03T03:52:36.016Z,-3.7
2018-03-03T04:02:35.981Z,-3.62
2018-03-03T04:12:35.986Z,-3.72
2018-03-03T04:22:36.022Z,-3.71
2018-03-03T04:32:36.022Z,-3.64
2018-03-03T04:42:36.029Z,-3.81
2018-03-03T04:52:35.999Z,-3.78
2018-03-03T05:02:36.048Z,-3.76
2018-03-03T05:12:36.006Z,-3.83
2018-03-03T05:22:36.094Z,-3.86
2018-03-03T05:32:36.083Z,-3.91
2018-03-03T05:42:36.029Z,-3.91
2018-03-03T05:52:36.031Z,-3.91
2018-03-03T06:02:35.980Z,-4.14
2018-03-03T06:12:36.072Z,-4.14
2018-03-03T06:22:36.075Z,-4.18
2018-03-03T06:32:36.122Z,-4.36
2018-03-03T06:42:36.072Z,-4.5
2018-03-03T06:52:36.031Z,-4.51
2018-03-03T07:02:36.123Z,-4.43
2018-03-03T07:12:36.160Z,-4.33
2018-03-03T07:22:36.114Z,-4.18
2018-03-03T07:32:36.041Z,-3.81
2018-03-03T07:42:36.124Z,-3.44
2018-03-03T07:52:36.149Z,-3.18
2018-03-03T08:02:36.274Z,-2.86
2018-03-03T08:12:36.125Z,-2.63
2018-03-03T08:22:36.217Z,-2.33
2018-03-03T08:32:36.158Z,-2.17
2018-03-03T08:42:36.198Z,-2.18
2018-03-03T08:52:36.180Z,-1.9
2018-03-03T09:02:36.166Z,-1.66
2018-03-03T09:12:36.201Z,-1.42
2018-03-03T09:22:36.156Z,-1.17
2018-03-03T09:32:36.195Z,-0.87
2018-03-03T09:42:36.154Z,-0.37
2018-03-03T09:52:36.215Z,-0.42
2018-03-03T10:02:36.318Z,-0.19
2018-03-03T10:12:36.237Z,0
2018-03-03T10:22:36.196Z,0.31
2018-03-03T10:32:36.276Z,0.27
2018-03-03T10:42:36.250Z,1.04
2018-03-03T10:52:36.282Z,1.54
2018-03-03T11:02:36.942Z,1.79
2018-03-03T11:12:36.336Z,1.72
2018-03-03T11:22:38.965Z,1.58
2018-03-03T11:32:36.256Z,1.69
2018-03-03T11:42:36.262Z,1.85
2018-03-03T11:52:36.205Z,2.01
2018-03-03T12:02:36.321Z,2.2
2018-03-03T12:12:36.285Z,2.02
2018-03-03T12:22:36.472Z,1.99
2018-03-03T12:32:36.302Z,1.79
2018-03-03T12:42:36.359Z,2.19
2018-03-03T12:52:36.312Z,2.26
2018-03-03T13:02:36.350Z,2.13
2018-03-03T13:12:36.519Z,1.99
2018-03-03T13:22:36.409Z,1.6
2018-03-03T13:32:36.342Z,1.62
2018-03-03T13:42:36.401Z,1.58
2018-03-03T13:52:36.408Z,1.52
2018-03-03T14:02:36.309Z,1.19
2018-03-03T14:12:36.389Z,1.19
2018-03-03T14:22:36.483Z,1.12
2018-03-03T14:32:36.458Z,1
2018-03-03T14:42:36.451Z,0.9
2018-03-03T14:52:36.418Z,1
2018-03-03T15:02:36.468Z,0.92
2018-03-03T15:12:36.360Z,0.88
2018-03-03T15:22:36.422Z,0.96
2018-03-03T15:32:36.395Z,0.88
2018-03-03T15:42:36.491Z,0.72
2018-03-03T15:52:36.448Z,0.83
2018-03-03T16:02:36.516Z,0.75
2018-03-03T16:12:36.469Z,0.75
2018-03-03T16:22:36.491Z,0.64
2018-03-03T16:32:36.549Z,0.49
2018-03-03T16:42:36.496Z,0.42
2018-03-03T16:52:36.496Z,0.39
2018-03-03T17:02:36.514Z,0.1
2018-03-03T17:12:36.522Z,0.1
2018-03-03T17:22:36.578Z,-0.23
2018-03-03T17:32:36.517Z,-0.11
2018-03-03T17:42:36.571Z,-0.15
2018-03-03T17:52:36.517Z,-0.06
2018-03-03T18:02:36.596Z,-0.05
2018-03-03T18:12:36.537Z,-0.12
2018-03-03T18:22:36.495Z,-0.05
2018-03-03T18:32:36.589Z,-0.05
2018-03-03T18:42:36.498Z,-0.06
2018-03-03T18:52:36.582Z,-0.05
2018-03-03T19:02:36.570Z,-0.05
2018-03-03T19:12:36.616Z,-0.18
2018-03-03T19:22:36.605Z,-0.15
2018-03-03T19:32:36.708Z,-0.13
2018-03-03T19:42:36.935Z,-0.13
2018-03-03T19:52:36.766Z,-0.18
2018-03-03T20:02:36.884Z,-0.18
2018-03-03T20:12:36.731Z,-0.13
2018-03-03T20:22:36.678Z,-0.12
2018-03-03T20:32:36.685Z,-0.31
2018-03-03T20:42:36.714Z,-0.29
2018-03-03T20:52:37.005Z,-0.5
2018-03-03T21:02:36.733Z,-0.55
2018-03-03T21:12:36.652Z,-0.22
2018-03-03T21:22:36.813Z,-0.62
2018-03-03T21:32:36.729Z,-0.77
2018-03-03T21:42:36.768Z,-0.8
2018-03-03T21:52:37.004Z,-0.75
2018-03-03T22:02:36.691Z,-0.59
2018-03-03T22:12:36.811Z,-0.6
2018-03-03T22:22:36.731Z,-0.63
2018-03-03T22:32:36.831Z,-0.52
2018-03-03T22:42:36.764Z,-0.65
2018-03-03T22:52:36.754Z,-0.69
2018-03-03T23:02:36.796Z,-0.65
2018-03-03T23:12:36.782Z,-0.87
2018-03-03T23:22:36.831Z,-1.03
2018-03-03T23:32:36.763Z,-1.09
2018-03-03T23:42:36.736Z,-1.2
2018-03-03T23:52:36.773Z,-1.15
